createdAt,value
2017-10-09T00:00:42.235Z,8.03
2017-10-09T00:03:09.670Z,7.30
2017-10-09T00:05:37.104Z,7.07
2017-10-09T00:08:04.535Z,7.40
2017-10-09T00:10:31.971Z,7.60
2017-10-09T00:12:59.397Z,7.77
2017-10-09T00:15:27.596Z,8.30
2017-10-09T00:17:55.029Z,6.90
2017-10-09T00:20:23.234Z,7.07
2017-10-09T00:22:50.661Z,7.93
2017-10-09T00:25:18.089Z,7.73
2017-10-09T00:27:45.519Z,7.00
2017-10-09T00:30:12.956Z,7.50
2017-10-09T00:32:40.376Z,8.40
2017-10-09T00:35:07.813Z,7.93
2017-10-09T00:37:35.247Z,8.73
2017-10-09T00:40:02.717Z,7.20
2017-10-09T00:42:30.151Z,7.07
2017-10-09T00:44:57.583Z,5.80
2017-10-09T00:47:25.789Z,7.27
2017-10-09T00:49:53.227Z,7.13
2017-10-09T00:52:20.659Z,7.90
2017-10-09T00:54:48.862Z,7.70
2017-10-09T00:57:16.288Z,7.77
2017-10-09T00:59:43.735Z,7.57
2017-10-09T01:02:11.169Z,7.80
2017-10-09T01:04:38.597Z,8.90
2017-10-09T01:07:06.035Z,9.60
2017-10-09T01:09:34.223Z,9.67
2017-10-09T01:12:01.661Z,9.00
2017-10-09T01:14:29.864Z,9.73
2017-10-09T01:16:57.292Z,9.50
2017-10-09T01:19:25.496Z,10.00
2017-10-09T01:21:52.921Z,8.90
2017-10-09T01:24:21.116Z,8.40
2017-10-09T01:26:48.547Z,9.27
2017-10-09T01:29:16.743Z,9.73
2017-10-09T01:31:44.163Z,8.70
2017-10-09T01:34:11.592Z,9.13
2017-10-09T01:36:39.033Z,10.63
2017-10-09T01:39:06.468Z,10.90
2017-10-09T01:41:33.972Z,11.07
2017-10-09T01:44:01.411Z,11.60
2017-10-09T01:46:28.860Z,11.30
2017-10-09T01:48:56.284Z,10.87
2017-10-09T01:51:24.495Z,11.10
2017-10-09T01:53:51.920Z,10.90
2017-10-09T01:56:19.365Z,10.93
2017-10-09T01:58:47.558Z,11.20
2017-10-09T02:01:15.021Z,11.43
2017-10-09T02:03:42.439Z,12.27
2017-10-09T02:06:09.878Z,11.23
2017-10-09T02:08:37.304Z,10.23
2017-10-09T02:11:04.747Z,11.20
2017-10-09T02:13:32.180Z,10.03
2017-10-09T02:16:00.389Z,11.57
2017-10-09T02:18:27.828Z,10.87
2017-10-09T02:20:55.256Z,12.30
2017-10-09T02:23:23.460Z,10.50
2017-10-09T02:25:50.883Z,10.67
2017-10-09T02:28:18.314Z,10.50
2017-10-09T02:30:45.754Z,10.63
2017-10-09T02:33:13.189Z,10.80
2017-10-09T02:35:40.617Z,8.70
2017-10-09T02:38:08.822Z,9.13
2017-10-09T02:40:36.239Z,9.67
2017-10-09T02:43:03.681Z,10.07
2017-10-09T02:45:31.116Z,9.37
2017-10-09T02:47:58.548Z,8.80
2017-10-09T02:50:25.976Z,9.50
2017-10-09T02:52:54.186Z,10.20
2017-10-09T02:55:21.613Z,8.70
2017-10-09T02:57:49.828Z,11.30
2017-10-09T03:00:17.252Z,10.43
2017-10-09T03:02:45.474Z,10.00
2017-10-09T03:05:12.931Z,11.10
2017-10-09T03:07:40.348Z,11.80
2017-10-09T03:10:07.774Z,13.00
2017-10-09T03:12:35.209Z,11.67
2017-10-09T03:15:02.648Z,12.07
2017-10-09T03:17:30.074Z,11.37
2017-10-09T03:19:57.508Z,12.53
2017-10-09T03:22:26.243Z,11.13
2017-10-09T03:28:04.823Z,12.17
2017-10-09T03:30:33.072Z,12.60
2017-10-09T03:33:00.507Z,12.73
2017-10-09T03:35:27.928Z,12.17
2017-10-09T03:37:56.135Z,14.10
2017-10-09T03:40:23.568Z,13.43
2017-10-09T03:42:51.026Z,13.57
2017-10-09T03:45:19.223Z,12.43
2017-10-09T03:47:46.648Z,11.47
2017-10-09T03:50:14.849Z,11.93
2017-10-09T03:52:42.273Z,9.97
2017-10-09T03:55:10.496Z,12.73
2017-10-09T03:57:37.942Z,12.63
2017-10-09T04:00:05.372Z,12.70
2017-10-09T04:02:33.568Z,12.13
2017-10-09T04:05:01.006Z,10.90
2017-10-09T04:07:29.213Z,11.00
2017-10-09T04:09:56.662Z,12.60
2017-10-09T04:12:24.097Z,12.90
2017-10-09T04:14:52.296Z,11.40
2017-10-09T04:17:19.736Z,11.80
2017-10-09T04:19:47.165Z,13.63
2017-10-09T04:22:15.368Z,13.00
2017-10-09T04:24:42.786Z,12.87
2017-10-09T04:27:10.219Z,11.10
2017-10-09T04:29:37.655Z,12.93
2017-10-09T04:32:05.092Z,13.13
2017-10-09T04:34:32.532Z,13.50
2017-10-09T04:36:59.957Z,12.23
2017-10-09T04:39:27.384Z,12.93
2017-10-09T04:41:54.832Z,13.00
2017-10-09T04:44:22.260Z,12.87
2017-10-09T04:46:50.456Z,13.80
2017-10-09T04:49:17.884Z,13.40
2017-10-09T04:51:46.133Z,12.93
2017-10-09T04:54:13.564Z,12.60
2017-10-09T04:56:41.000Z,13.33
2017-10-09T04:59:08.425Z,16.17
2017-10-09T05:01:36.623Z,13.70
2017-10-09T05:04:04.056Z,14.93
2017-10-09T05:06:32.324Z,14.17
2017-10-09T05:08:59.739Z,13.43
2017-10-09T05:11:27.175Z,12.47
2017-10-09T05:13:54.599Z,13.50
2017-10-09T05:16:22.028Z,12.13
2017-10-09T05:18:49.464Z,14.57
2017-10-09T05:21:16.900Z,14.77
2017-10-09T05:23:44.355Z,13.87
2017-10-09T05:26:11.790Z,13.70
2017-10-09T05:28:39.987Z,13.77
2017-10-09T05:31:07.412Z,13.77
2017-10-09T05:33:34.850Z,11.80
2017-10-09T05:36:02.274Z,12.00
2017-10-09T05:38:29.711Z,13.70
2017-10-09T05:40:57.139Z,14.10
2017-10-09T05:43:24.583Z,11.80
2017-10-09T05:45:52.012Z,13.67
2017-10-09T05:48:19.461Z,11.23
2017-10-09T05:50:46.888Z,13.20
2017-10-09T05:53:14.323Z,12.53
2017-10-09T05:55:41.757Z,12.03
2017-10-09T05:58:09.205Z,10.70
2017-10-09T06:00:36.640Z,13.13
2017-10-09T06:03:04.084Z,12.40
2017-10-09T06:05:31.520Z,11.93
2017-10-09T06:07:59.729Z,13.27
2017-10-09T06:10:27.160Z,11.97
2017-10-09T06:12:54.589Z,12.13
2017-10-09T06:15:22.028Z,11.60
2017-10-09T06:17:49.460Z,12.00
2017-10-09T06:20:16.900Z,11.77
2017-10-09T06:22:44.323Z,13.37
2017-10-09T06:25:13.268Z,12.90
2017-10-09T06:27:40.704Z,12.53
2017-10-09T06:30:08.147Z,14.13
2017-10-09T06:32:36.352Z,14.77
2017-10-09T06:35:03.800Z,12.40
2017-10-09T06:37:31.223Z,13.80
2017-10-09T06:39:59.426Z,14.43
2017-10-09T06:42:26.862Z,13.10
2017-10-09T06:44:55.069Z,11.17
2017-10-09T06:47:22.498Z,12.23
2017-10-09T06:49:50.701Z,13.23
2017-10-09T06:52:18.132Z,14.30
2017-10-09T06:54:45.578Z,17.60
2017-10-09T06:57:13.775Z,15.37
2017-10-09T06:59:41.220Z,14.50
2017-10-09T07:02:09.403Z,14.60
2017-10-09T07:04:36.842Z,16.63
2017-10-09T07:07:05.038Z,15.03
2017-10-09T07:09:32.477Z,13.13
2017-10-09T07:12:00.675Z,13.93
2017-10-09T07:14:28.119Z,14.97
2017-10-09T07:16:55.548Z,14.07
2017-10-09T07:19:23.739Z,15.57
2017-10-09T07:21:51.184Z,14.80
2017-10-09T07:24:19.394Z,15.23
2017-10-09T07:26:46.830Z,17.00
2017-10-09T07:29:15.025Z,18.90
2017-10-09T07:31:42.463Z,17.27
2017-10-09T07:34:09.908Z,18.37
2017-10-09T07:36:38.120Z,17.27
2017-10-09T07:39:05.543Z,19.37
2017-10-09T07:41:33.815Z,17.83
2017-10-09T07:44:02.012Z,16.23
2017-10-09T07:46:29.444Z,15.10
2017-10-09T07:48:57.637Z,16.57
2017-10-09T07:51:25.073Z,15.03
2017-10-09T07:53:53.276Z,16.00
2017-10-09T07:56:20.708Z,16.00
2017-10-09T07:58:48.920Z,18.23
2017-10-09T08:01:16.461Z,16.53
2017-10-09T08:03:43.887Z,15.40
2017-10-09T08:06:11.328Z,15.63
2017-10-09T08:08:38.756Z,14.30
2017-10-09T08:11:07.184Z,15.13
2017-10-09T08:13:35.384Z,14.33
2017-10-09T08:16:02.823Z,14.47
2017-10-09T08:18:31.020Z,15.07
2017-10-09T08:20:58.453Z,15.33
2017-10-09T08:23:26.667Z,16.27
2017-10-09T08:25:54.091Z,13.60
2017-10-09T08:28:22.297Z,12.87
2017-10-09T08:30:49.725Z,14.57
2017-10-09T08:33:17.927Z,15.20
2017-10-09T08:35:45.363Z,14.70
2017-10-09T08:38:13.555Z,13.70
2017-10-09T08:40:40.979Z,15.00
2017-10-09T08:43:09.179Z,14.60
2017-10-09T08:45:36.608Z,13.93
2017-10-09T08:48:04.822Z,12.50
2017-10-09T08:50:32.251Z,14.20
2017-10-09T08:53:00.455Z,12.57
2017-10-09T08:55:27.938Z,12.70
2017-10-09T08:57:55.383Z,13.40
2017-10-09T09:00:22.812Z,10.93
2017-10-09T09:02:50.235Z,12.70
2017-10-09T09:05:18.464Z,10.73
2017-10-09T09:07:45.907Z,10.70
2017-10-09T09:10:13.338Z,10.57
2017-10-09T09:12:41.548Z,10.87
2017-10-09T09:15:08.976Z,12.40
2017-10-09T09:17:36.407Z,11.27
2017-10-09T09:20:03.845Z,10.77
2017-10-09T09:22:31.275Z,12.70
2017-10-09T09:24:58.713Z,11.43
2017-10-09T09:27:26.163Z,12.10
2017-10-09T09:29:53.592Z,11.77
2017-10-09T09:32:21.791Z,10.30
2017-10-09T09:34:49.237Z,10.77
2017-10-09T09:37:17.440Z,10.20
2017-10-09T09:39:44.876Z,8.77
2017-10-09T09:42:12.310Z,10.60
2017-10-09T09:44:39.748Z,7.77
2017-10-09T09:47:07.180Z,8.80
2017-10-09T09:49:34.631Z,6.97
2017-10-09T09:52:02.067Z,7.53
2017-10-09T09:54:29.508Z,7.27
2017-10-09T09:56:57.718Z,7.10
2017-10-09T09:59:25.139Z,7.10
2017-10-09T10:01:53.335Z,7.30
2017-10-09T10:04:20.898Z,7.37
2017-10-09T10:06:48.320Z,6.87
2017-10-09T10:09:15.743Z,6.10
2017-10-09T10:11:43.174Z,6.03
2017-10-09T10:14:10.608Z,6.40
2017-10-09T10:16:38.044Z,5.70
2017-10-09T10:19:06.244Z,5.67
2017-10-09T10:21:33.664Z,5.67
2017-10-09T10:24:01.083Z,5.50
2017-10-09T10:26:28.515Z,5.23
2017-10-09T10:28:55.940Z,4.20
2017-10-09T10:31:23.372Z,4.97
2017-10-09T10:33:50.797Z,5.63
2017-10-09T10:36:18.236Z,5.10
2017-10-09T10:38:45.663Z,4.80
2017-10-09T10:41:13.100Z,4.70
2017-10-09T10:43:40.533Z,4.80
2017-10-09T10:46:07.955Z,5.10
2017-10-09T10:48:36.143Z,4.60
2017-10-09T10:51:03.575Z,3.83
2017-10-09T10:53:31.765Z,4.03
2017-10-09T10:55:59.965Z,4.10
2017-10-09T10:58:27.398Z,4.07
2017-10-09T11:00:54.835Z,4.33
2017-10-09T11:03:22.285Z,3.70
2017-10-09T11:05:49.716Z,3.53
2017-10-09T11:08:17.150Z,3.87
2017-10-09T11:10:45.594Z,4.40
2017-10-09T11:13:13.779Z,3.80
2017-10-09T11:15:41.212Z,3.57
2017-10-09T11:18:08.640Z,2.97
2017-10-09T11:20:36.067Z,3.80
2017-10-09T11:23:03.487Z,3.70
2017-10-09T11:25:31.688Z,3.13
2017-10-09T11:27:59.109Z,3.00
2017-10-09T11:30:26.544Z,3.13
2017-10-09T11:32:53.975Z,3.60
2017-10-09T11:35:21.415Z,3.10
2017-10-09T11:37:48.844Z,3.07
2017-10-09T11:40:17.041Z,3.83
2017-10-09T11:42:44.463Z,3.10
2017-10-09T11:45:11.888Z,3.40
2017-10-09T11:47:39.334Z,2.77
2017-10-09T11:50:06.755Z,3.03
2017-10-09T11:52:34.963Z,2.93
2017-10-09T11:55:02.409Z,2.33
2017-10-09T11:57:29.841Z,2.20
2017-10-09T11:59:58.032Z,2.30
2017-10-09T12:02:25.475Z,2.90
2017-10-09T12:04:53.668Z,2.63
2017-10-09T12:07:21.102Z,2.33
2017-10-09T12:09:49.300Z,2.60
2017-10-09T12:12:16.823Z,2.57
2017-10-09T12:14:45.013Z,2.40
2017-10-09T12:17:13.219Z,2.50
2017-10-09T12:19:40.646Z,1.67
2017-10-09T12:22:08.850Z,2.33
2017-10-09T12:24:36.271Z,2.07
2017-10-09T12:27:04.457Z,2.40
2017-10-09T12:29:31.887Z,2.10
2017-10-09T12:31:59.316Z,2.30
2017-10-09T12:34:26.749Z,2.30
2017-10-09T12:36:54.185Z,2.40
2017-10-09T12:39:21.619Z,2.27
2017-10-09T12:41:49.822Z,2.13
2017-10-09T12:44:17.248Z,2.00
2017-10-09T12:46:45.445Z,2.03
2017-10-09T12:49:12.952Z,2.13
2017-10-09T12:51:40.384Z,2.07
2017-10-09T12:54:07.824Z,1.93
2017-10-09T12:56:35.245Z,2.00
2017-10-09T12:59:02.676Z,2.83
2017-10-09T13:01:30.111Z,2.20
2017-10-09T13:03:57.548Z,2.53
2017-10-09T13:06:24.972Z,2.60
2017-10-09T13:08:52.400Z,2.70
2017-10-09T13:11:19.836Z,1.63
2017-10-09T13:13:47.259Z,2.30
2017-10-09T13:16:15.443Z,2.00
2017-10-09T13:18:42.872Z,1.80
2017-10-09T13:21:10.338Z,2.43
2017-10-09T13:23:37.764Z,2.40
2017-10-09T13:26:05.190Z,2.23
2017-10-09T13:28:32.613Z,2.07
2017-10-09T13:31:00.819Z,2.43
2017-10-09T13:33:28.245Z,2.00
2017-10-09T13:35:56.435Z,2.27
2017-10-09T13:38:23.866Z,2.30
2017-10-09T13:40:51.296Z,2.30
2017-10-09T13:43:18.723Z,2.33
2017-10-09T13:45:46.168Z,2.73
2017-10-09T13:48:13.583Z,2.67
2017-10-09T13:50:41.015Z,2.07
2017-10-09T13:53:08.451Z,2.03
2017-10-09T13:55:35.883Z,2.93
2017-10-09T13:58:03.313Z,2.00
2017-10-09T14:00:30.739Z,2.47
2017-10-09T14:02:58.164Z,2.43
2017-10-09T14:05:25.595Z,2.87
2017-10-09T14:07:53.024Z,2.20
2017-10-09T14:10:20.473Z,2.10
2017-10-09T14:12:47.892Z,3.17
2017-10-09T14:15:15.327Z,2.57
2017-10-09T14:17:43.514Z,2.83
2017-10-09T14:20:11.029Z,2.30
2017-10-09T14:22:38.456Z,2.27
2017-10-09T14:25:05.945Z,2.50
2017-10-09T14:27:33.367Z,2.30
2017-10-09T14:30:00.801Z,2.33
2017-10-09T14:39:51.328Z,1.70
2017-10-09T14:42:19.521Z,1.83
2017-10-09T14:44:46.941Z,2.93
2017-10-09T14:47:14.371Z,2.50
2017-10-09T14:49:41.795Z,2.80
2017-10-09T14:52:09.231Z,2.67
2017-10-09T14:54:37.440Z,2.70
2017-10-09T14:57:04.868Z,2.37
2017-10-09T14:59:33.074Z,2.40
2017-10-09T15:02:00.501Z,2.33
2017-10-09T15:04:28.697Z,2.40
2017-10-09T15:06:56.132Z,2.30
2017-10-09T15:09:23.564Z,2.57
2017-10-09T15:11:50.993Z,2.57
2017-10-09T15:14:18.432Z,2.40
2017-10-09T15:16:45.956Z,2.00
2017-10-09T15:19:14.150Z,2.40
2017-10-09T15:21:41.643Z,2.30
2017-10-09T15:24:09.592Z,2.27
2017-10-09T15:26:37.021Z,2.73
2017-10-09T15:29:04.448Z,2.60
2017-10-09T15:31:31.879Z,2.23
2017-10-09T15:33:59.310Z,2.57
2017-10-09T15:36:26.739Z,2.70
2017-10-09T15:38:54.947Z,2.70
2017-10-09T15:41:22.385Z,3.17
2017-10-09T15:43:49.808Z,4.60
2017-10-09T15:46:17.259Z,3.60
2017-10-09T15:48:44.696Z,3.83
2017-10-09T15:51:12.127Z,3.10
2017-10-09T15:53:39.584Z,3.73
2017-10-09T15:56:07.004Z,3.90
2017-10-09T15:58:35.217Z,3.77
2017-10-09T16:01:02.634Z,4.80
2017-10-09T16:03:30.824Z,4.53
2017-10-09T16:05:58.260Z,4.40
2017-10-09T16:08:25.685Z,4.93
2017-10-09T16:10:53.110Z,4.87
2017-10-09T16:13:20.537Z,5.20
2017-10-09T16:15:48.725Z,4.50
2017-10-09T16:18:16.151Z,5.30
2017-10-09T16:20:43.586Z,4.93
2017-10-09T16:23:11.019Z,4.63
2017-10-09T16:25:38.455Z,4.60
2017-10-09T16:28:05.969Z,4.80
2017-10-09T16:30:33.393Z,4.97
2017-10-09T16:33:00.823Z,4.17
2017-10-09T16:35:28.247Z,4.97
2017-10-09T16:37:55.684Z,4.37
2017-10-09T16:40:23.108Z,4.37
2017-10-09T16:42:50.536Z,4.53
2017-10-09T16:45:18.723Z,6.03
2017-10-09T16:47:46.151Z,5.23
2017-10-09T16:50:13.572Z,5.33
2017-10-09T16:52:41.051Z,4.87
2017-10-09T16:55:08.486Z,5.43
2017-10-09T16:57:35.910Z,5.60
2017-10-09T17:00:03.348Z,5.47
2017-10-09T17:02:31.527Z,6.40
2017-10-09T17:04:59.740Z,5.90
2017-10-09T17:07:27.156Z,5.90
2017-10-09T17:09:55.352Z,6.10
2017-10-09T17:12:22.772Z,6.40
2017-10-09T17:14:50.204Z,7.77
2017-10-09T17:17:17.634Z,5.67
2017-10-09T17:19:45.068Z,7.23
2017-10-09T17:22:12.510Z,5.97
2017-10-09T17:24:40.704Z,5.90
2017-10-09T17:27:08.132Z,7.37
2017-10-09T17:29:36.335Z,6.80
2017-10-09T17:32:03.765Z,7.10
2017-10-09T17:34:31.196Z,8.90
2017-10-09T17:36:58.625Z,8.83
2017-10-09T17:39:26.067Z,8.63
2017-10-09T17:41:53.492Z,8.20
2017-10-09T17:44:21.692Z,7.87
2017-10-09T17:46:49.123Z,8.60
2017-10-09T17:49:17.316Z,8.83
2017-10-09T17:51:44.752Z,8.30
2017-10-09T17:54:12.949Z,6.60
2017-10-09T17:56:40.389Z,7.67
2017-10-09T17:59:08.588Z,7.90
2017-10-09T18:01:36.019Z,7.30
2017-10-09T18:04:04.217Z,6.03
2017-10-09T18:06:31.654Z,7.70
2017-10-09T18:08:59.844Z,7.27
2017-10-09T18:11:27.271Z,7.07
2017-10-09T18:13:54.705Z,6.03
2017-10-09T18:16:22.143Z,8.53
2017-10-09T18:18:49.566Z,7.43
2017-10-09T18:21:16.997Z,7.00
2017-10-09T18:23:44.445Z,7.33
2017-10-09T18:26:11.876Z,7.83
2017-10-09T18:28:39.324Z,7.93
2017-10-09T18:31:06.751Z,8.10
2017-10-09T18:33:34.184Z,7.80
2017-10-09T18:36:01.644Z,8.20
2017-10-09T18:38:29.840Z,7.97
2017-10-09T18:40:57.272Z,7.70
2017-10-09T18:43:24.697Z,8.27
2017-10-09T18:45:52.126Z,9.73
2017-10-09T18:48:19.577Z,9.77
2017-10-09T18:50:46.995Z,9.30
2017-10-09T18:53:14.434Z,7.73
2017-10-09T18:55:41.874Z,8.63
2017-10-09T18:58:09.320Z,7.83
2017-10-09T19:00:36.748Z,9.57
2017-10-09T19:03:04.183Z,10.43
2017-10-09T19:05:31.612Z,10.47
2017-10-09T19:07:59.043Z,9.37
2017-10-09T19:10:26.482Z,10.03
2017-10-09T19:12:53.914Z,9.53
2017-10-09T19:15:22.129Z,9.60
2017-10-09T19:17:49.567Z,11.43
2017-10-09T19:20:17.003Z,9.50
2017-10-09T19:22:45.196Z,10.17
2017-10-09T19:25:12.634Z,10.70
2017-10-09T19:27:40.825Z,10.50
2017-10-09T19:30:08.253Z,9.90
2017-10-09T19:32:35.693Z,10.27
2017-10-09T19:35:03.124Z,10.00
2017-10-09T19:37:30.576Z,11.50
2017-10-09T19:39:58.000Z,10.23
2017-10-09T19:42:26.196Z,10.40
2017-10-09T19:44:53.651Z,10.80
2017-10-09T19:47:21.836Z,11.20
2017-10-09T19:49:49.303Z,10.17
2017-10-09T19:52:16.720Z,10.33
2017-10-09T19:54:44.925Z,11.30
2017-10-09T19:57:12.351Z,9.90
2017-10-09T19:59:40.578Z,10.60
2017-10-09T20:02:07.992Z,10.20
2017-10-09T20:04:35.428Z,11.03
2017-10-09T20:07:02.847Z,11.07
2017-10-09T20:09:30.292Z,10.73
2017-10-09T20:11:57.722Z,11.37
2017-10-09T20:14:25.153Z,10.70
2017-10-09T20:16:53.357Z,10.60
2017-10-09T20:19:20.813Z,12.07
2017-10-09T20:21:48.239Z,12.17
2017-10-09T20:24:16.446Z,10.00
2017-10-09T20:26:43.882Z,12.33
2017-10-09T20:29:12.092Z,11.20
2017-10-09T20:31:39.528Z,11.43
2017-10-09T20:34:06.959Z,9.53
2017-10-09T20:36:35.159Z,11.20
2017-10-09T20:39:02.609Z,11.30
2017-10-09T20:41:30.884Z,10.70
2017-10-09T20:43:59.087Z,10.40
2017-10-09T20:46:26.527Z,10.07
2017-10-09T20:48:53.948Z,10.80
2017-10-09T20:51:21.383Z,9.67
2017-10-09T20:53:48.817Z,11.20
2017-10-09T20:56:16.256Z,10.23
2017-10-09T20:58:43.692Z,10.23
2017-10-09T21:01:11.896Z,10.33
2017-10-09T21:03:39.329Z,10.20
2017-10-09T21:06:07.531Z,10.37
2017-10-09T21:08:35.690Z,11.27
2017-10-09T21:11:03.127Z,11.20
2017-10-09T21:13:31.323Z,11.60
2017-10-09T21:15:58.773Z,10.10
2017-10-09T21:18:26.209Z,10.87
2017-10-09T21:20:54.418Z,9.10
2017-10-09T21:23:21.855Z,10.00
2017-10-09T21:25:49.293Z,9.77
2017-10-09T21:28:17.491Z,10.67
2017-10-09T21:30:44.933Z,12.00
2017-10-09T21:33:13.129Z,9.33
2017-10-09T21:35:40.586Z,10.03
2017-10-09T21:38:08.037Z,9.97
2017-10-09T21:40:35.455Z,9.30
2017-10-09T21:43:02.884Z,9.03
2017-10-09T21:45:30.329Z,10.43
2017-10-09T21:47:57.768Z,10.63
2017-10-09T21:50:25.197Z,11.50
2017-10-09T21:52:53.393Z,8.70
2017-10-09T21:55:20.818Z,9.87
2017-10-09T21:57:48.247Z,9.90
2017-10-09T22:00:15.683Z,10.20
2017-10-09T22:02:43.115Z,10.40
2017-10-09T22:05:10.549Z,11.67
2017-10-09T22:07:37.988Z,12.07
2017-10-09T22:10:05.416Z,11.93
2017-10-09T22:12:32.855Z,10.97
2017-10-09T22:15:00.291Z,11.00
2017-10-09T22:17:28.499Z,11.83
2017-10-09T22:19:55.923Z,11.97
2017-10-09T22:22:24.135Z,12.43
2017-10-09T22:24:51.565Z,11.90
2017-10-09T22:27:18.992Z,10.60
2017-10-09T22:29:46.429Z,10.33
2017-10-09T22:32:13.871Z,10.70
2017-10-09T22:34:41.297Z,11.03
2017-10-09T22:37:08.759Z,10.17
2017-10-09T22:39:36.186Z,10.60
2017-10-09T22:42:04.387Z,9.60
2017-10-09T22:44:31.824Z,10.10
2017-10-09T22:47:00.032Z,11.10
2017-10-09T22:49:27.483Z,11.17
2017-10-09T22:51:54.909Z,10.40
2017-10-09T22:54:35.052Z,11.50
2017-10-09T22:57:02.485Z,11.10
2017-10-09T22:59:29.925Z,12.20
2017-10-09T23:01:57.352Z,9.80
2017-10-09T23:04:24.783Z,10.67
2017-10-09T23:06:52.985Z,11.10
2017-10-09T23:09:20.419Z,11.17
2017-10-09T23:11:48.607Z,11.33
2017-10-09T23:14:16.044Z,10.93
2017-10-09T23:16:44.245Z,10.47
2017-10-09T23:19:11.689Z,11.60
2017-10-09T23:21:39.895Z,10.40
2017-10-09T23:24:07.333Z,10.50
2017-10-09T23:26:34.763Z,10.70
2017-10-09T23:29:02.960Z,11.07
2017-10-09T23:31:30.400Z,11.40
2017-10-09T23:33:58.608Z,11.60
2017-10-09T23:36:26.029Z,11.13
2017-10-09T23:38:54.235Z,10.03
2017-10-09T23:41:21.656Z,11.70
2017-10-09T23:43:49.889Z,11.00
2017-10-09T23:46:17.321Z,10.00
2017-10-09T23:48:44.748Z,11.80
2017-10-09T23:51:12.965Z,11.63
2017-10-09T23:53:40.391Z,10.37
2017-10-09T23:56:07.835Z,10.53
2017-10-09T23:58:36.100Z,12.07
